Time;durP1;ratioP1;P1;durP2;ratioP2;P2;SDS_P1;SDS_P2;PMS_P1;PMS_P2;Temp;Humidity;BMP_temperature;BMP_pressure;BME280_temperature;BME280_humidity;BME280_pressure;Samples;Min_cycle;Max_cycle;Signal;HPM_P1;HPM_P2
2021/10/20 00:00:42;;;;;;;5.47;4.97;;;;;;;14.50;100.00;100157.88;5090355;28;20177;-76
2021/10/20 00:03:08;;;;;;;5.50;5.10;;;;;;;14.44;100.00;100153.75;5090339;28;20199;-76
2021/10/20 00:05:33;;;;;;;5.77;5.27;;;;;;;14.37;100.00;100159.00;5090330;28;20190;-75
2021/10/20 00:08:01;;;;;;;6.67;5.97;;;;;;;14.37;100.00;100150.75;5090336;28;20553;-75
2021/10/20 00:10:26;;;;;;;5.73;5.23;;;;;;;14.39;100.00;100148.47;5072029;28;20638;-76
2021/10/20 00:12:52;;;;;;;5.70;5.10;;;;;;;14.50;100.00;100147.69;5089457;28;20264;-75
2021/10/20 00:15:21;;;;;;;5.57;5.07;;;;;;;14.41;100.00;100143.41;5089847;28;20276;-76
2021/10/20 00:17:49;;;;;;;5.03;4.53;;;;;;;14.38;100.00;100149.59;5072242;28;20663;-76
2021/10/20 00:20:18;;;;;;;7.97;5.23;;;;;;;14.45;100.00;100141.59;5090694;28;20174;-76
2021/10/20 00:22:44;;;;;;;5.37;4.97;;;;;;;14.42;100.00;100145.00;5090571;28;20201;-76
2021/10/20 00:25:10;;;;;;;5.50;5.10;;;;;;;14.26;100.00;100131.97;5092036;28;20251;-75
2021/10/20 00:27:36;;;;;;;4.17;3.43;;;;;;;14.27;100.00;100127.28;5094011;28;20178;-76
2021/10/20 00:30:02;;;;;;;4.43;4.00;;;;;;;14.37;100.00;100126.03;5094279;28;20345;-75
2021/10/20 00:32:28;;;;;;;2.40;2.20;;;;;;;14.49;100.00;100132.34;5075649;28;20235;-76
2021/10/20 00:34:53;;;;;;;5.13;4.73;;;;;;;14.53;100.00;100130.50;5093531;28;20209;-76
2021/10/20 00:37:18;;;;;;;4.70;4.30;;;;;;;14.50;100.00;100122.16;5093867;28;20260;-76
2021/10/20 00:39:44;;;;;;;5.67;5.10;;;;;;;14.57;100.00;100116.84;5093915;28;20176;-76
2021/10/20 00:42:09;;;;;;;5.30;4.83;;;;;;;14.45;100.00;100105.88;5094079;28;20303;-76
2021/10/20 00:44:46;;;;;;;5.63;4.60;;;;;;;14.49;100.00;100112.28;5075503;28;20166;-75
2021/10/20 00:47:12;;;;;;;3.60;3.30;;;;;;;14.51;100.00;100110.00;5075654;28;20207;-76
2021/10/20 00:49:37;;;;;;;4.17;3.80;;;;;;;14.52;100.00;100103.34;5093735;28;20541;-76
2021/10/20 00:52:03;;;;;;;4.70;4.30;;;;;;;14.40;100.00;100097.84;5093598;28;20174;-76
2021/10/20 00:54:28;;;;;;;4.27;3.37;;;;;;;14.53;100.00;100104.94;5075336;28;20276;-76
2021/10/20 00:56:54;;;;;;;3.33;3.03;;;;;;;14.63;100.00;100085.25;5093360;28;20205;-76
2021/10/20 00:59:20;;;;;;;3.50;2.90;;;;;;;14.63;100.00;100089.94;5075413;28;20748;-76
2021/10/20 01:01:46;;;;;;;2.83;2.63;;;;;;;14.57;100.00;100081.91;5075259;28;20205;-76
2021/10/20 01:04:11;;;;;;;4.07;3.70;;;;;;;14.57;100.00;100078.34;5092995;28;20174;-75
2021/10/20 01:06:37;;;;;;;3.10;2.90;;;;;;;14.53;100.00;100082.97;5093266;28;20652;-76
2021/10/20 01:09:03;;;;;;;3.27;3.03;;;;;;;14.61;100.00;100075.72;5093204;28;20496;-75
2021/10/20 01:11:28;;;;;;;4.00;3.70;;;;;;;14.53;100.00;100070.00;5075075;28;20182;-76
2021/10/20 01:13:54;;;;;;;3.30;3.00;;;;;;;14.52;100.00;100073.13;5092768;28;20181;-75
2021/10/20 01:16:20;;;;;;;3.50;3.20;;;;;;;14.47;100.00;100067.88;5092876;28;20393;-76
2021/10/20 01:18:46;;;;;;;3.67;3.03;;;;;;;14.45;100.00;100070.94;5093003;28;20189;-76
2021/10/20 01:21:19;;;;;;;3.33;3.13;;;;;;;14.46;100.00;100060.75;5074832;28;20209;-76
2021/10/20 01:23:48;;;;;;;3.60;2.80;;;;;;;14.43;100.00;100058.66;5092744;28;20695;-75
2021/10/20 01:26:17;;;;;;;3.80;3.50;;;;;;;14.45;100.00;100061.88;5093085;28;20170;-76
2021/10/20 01:28:44;;;;;;;3.67;3.37;;;;;;;14.50;100.00;100051.47;5092789;28;20182;-75
2021/10/20 01:31:10;;;;;;;4.03;3.73;;;;;;;14.38;100.00;100043.22;5092953;28;20182;-76
2021/10/20 01:33:35;;;;;;;1.57;1.47;;;;;;;14.38;100.00;100045.16;5092665;28;20273;-76
2021/10/20 01:36:00;;;;;;;4.10;3.70;;;;;;;14.43;100.00;100045.72;5073071;28;20210;-76
2021/10/20 01:38:26;;;;;;;3.67;3.37;;;;;;;14.41;100.00;100036.22;5092684;28;20655;-76
2021/10/20 01:40:51;;;;;;;2.70;2.50;;;;;;;14.45;100.00;100028.91;5092720;28;20677;-76
2021/10/20 01:43:17;;;;;;;2.83;2.63;;;;;;;14.45;100.00;100024.19;5074417;28;20190;-75
2021/10/20 01:45:42;;;;;;;3.20;2.80;;;;;;;14.50;100.00;100026.72;5092166;28;20633;-76
2021/10/20 01:48:08;;;;;;;3.43;3.23;;;;;;;14.45;100.00;100013.22;5092391;28;20266;-76
2021/10/20 01:50:33;;;;;;;3.50;3.20;;;;;;;14.46;100.00;100011.25;5092907;28;20178;-76
2021/10/20 01:52:59;;;;;;;3.17;2.17;;;;;;;14.45;100.00;100009.66;5092394;28;20666;-76
2021/10/20 01:55:24;;;;;;;2.67;2.47;;;;;;;14.42;100.00;100004.84;5092086;28;20515;-76
2021/10/20 01:57:49;;;;;;;3.43;3.23;;;;;;;14.41;100.00;100003.25;5074035;28;20178;-76
2021/10/20 02:00:15;;;;;;;3.83;3.53;;;;;;;14.41;100.00;100003.25;5074126;28;20190;-76
2021/10/20 02:02:41;;;;;;;3.00;2.80;;;;;;;14.45;100.00;100002.22;5074073;28;20174;-76
2021/10/20 02:05:11;;;;;;;0.93;0.93;;;;;;;14.48;100.00;100003.50;5091935;28;20189;-76
2021/10/20 02:07:37;;;;;;;3.87;3.57;;;;;;;14.51;100.00;99992.59;5073704;28;20221;-76
2021/10/20 02:10:08;;;;;;;3.13;2.93;;;;;;;14.48;100.00;99984.25;5073752;28;20206;-76
2021/10/20 02:12:33;;;;;;;1.30;1.07;;;;;;;14.45;100.00;99985.72;5091413;28;20204;-76
2021/10/20 02:14:58;;;;;;;0.83;0.83;;;;;;;14.52;100.00;99979.66;5073505;28;20641;-76
2021/10/20 02:17:24;;;;;;;3.00;2.77;;;;;;;14.55;100.00;99976.19;5091876;28;20212;-76
2021/10/20 02:19:49;;;;;;;3.70;3.37;;;;;;;14.47;100.00;99969.72;5073691;28;20259;-75
2021/10/20 02:22:14;;;;;;;3.77;2.47;;;;;;;14.45;100.00;99968.44;5091815;28;20214;-74
2021/10/20 02:24:40;;;;;;;2.73;2.53;;;;;;;14.50;100.00;99969.00;5091865;28;20631;-74
2021/10/20 02:27:05;;;;;;;2.53;2.33;;;;;;;14.49;100.00;99967.41;5073441;28;20189;-74
2021/10/20 02:29:31;;;;;;;3.43;3.20;;;;;;;14.56;100.00;99958.53;5091756;28;20223;-74
2021/10/20 02:31:56;;;;;;;4.27;2.97;;;;;;;14.59;100.00;99966.09;5092062;28;20690;-74
2021/10/20 02:34:22;;;;;;;4.00;3.57;;;;;;;14.68;99.19;99955.75;5073220;28;20617;-74
2021/10/20 02:36:48;;;;;;;3.23;2.93;;;;;;;14.67;98.92;99951.41;5091378;28;20251;-74
2021/10/20 02:39:13;;;;;;;3.70;3.40;;;;;;;14.55;99.38;99940.44;5073183;28;20182;-75
2021/10/20 02:41:39;;;;;;;3.60;3.27;;;;;;;14.59;99.03;99941.34;5091480;28;20186;-75
2021/10/20 02:44:05;;;;;;;2.77;2.40;;;;;;;14.55;98.79;99946.75;5073030;28;20648;-74
2021/10/20 02:46:32;;;;;;;2.67;2.47;;;;;;;14.56;98.92;99931.06;5072970;28;20178;-74
2021/10/20 02:48:57;;;;;;;3.00;2.80;;;;;;;14.52;98.93;99936.47;5072743;28;20677;-75
2021/10/20 02:51:23;;;;;;;5.17;3.03;;;;;;;14.52;98.82;99930.16;5089972;28;20169;-74
2021/10/20 02:53:49;;;;;;;2.47;2.23;;;;;;;14.69;97.11;99929.84;5089339;28;20181;-74
2021/10/20 02:56:15;;;;;;;5.20;2.50;;;;;;;14.65;96.96;99928.97;5091500;28;20216;-75
2021/10/20 02:58:41;;;;;;;4.03;2.47;;;;;;;14.65;97.17;99934.47;5091477;28;20170;-74
2021/10/20 03:01:06;;;;;;;2.87;2.67;;;;;;;14.54;97.19;99917.66;5073408;28;20184;-74
2021/10/20 03:03:32;;;;;;;2.90;2.70;;;;;;;14.55;97.65;99923.97;5091592;28;20173;-74
2021/10/20 03:05:57;;;;;;;3.40;3.10;;;;;;;14.56;97.10;99909.88;5073083;28;20201;-74
2021/10/20 03:08:23;;;;;;;3.13;2.80;;;;;;;14.56;96.98;99911.81;5073139;28;20231;-74
2021/10/20 03:10:48;;;;;;;3.30;3.00;;;;;;;14.55;96.62;99905.50;5091461;28;20205;-74
2021/10/20 03:13:13;;;;;;;1.97;1.87;;;;;;;14.63;96.24;99889.22;5073010;28;20638;-74
2021/10/20 03:15:39;;;;;;;2.70;2.50;;;;;;;14.73;95.07;99906.00;5091259;28;20664;-74
2021/10/20 03:18:04;;;;;;;3.40;2.50;;;;;;;14.65;95.52;99901.47;5091233;28;20176;-74
2021/10/20 03:20:29;;;;;;;3.07;2.80;;;;;;;14.65;94.92;99904.22;5073147;28;20334;-74
2021/10/20 03:22:55;;;;;;;2.40;2.20;;;;;;;14.69;94.88;99898.81;5073402;28;20269;-75
2021/10/20 03:25:20;;;;;;;1.90;1.43;;;;;;;14.72;94.47;99900.84;5091499;28;20174;-74
2021/10/20 03:27:47;;;;;;;3.10;2.80;;;;;;;14.67;94.73;99898.38;5090877;28;20174;-75
2021/10/20 03:30:15;;;;;;;3.83;3.53;;;;;;;14.60;95.26;99898.94;5072888;28;20166;-75
2021/10/20 03:32:40;;;;;;;2.10;2.00;;;;;;;14.66;94.83;99892.06;5091026;28;20177;-74
2021/10/20 03:35:06;;;;;;;4.10;2.20;;;;;;;14.77;94.02;99901.41;5072958;28;20265;-74
2021/10/20 03:37:32;;;;;;;2.27;2.07;;;;;;;14.74;93.77;99891.09;5091177;28;20193;-74
2021/10/20 03:39:57;;;;;;;2.57;2.37;;;;;;;14.76;93.26;99888.81;5072856;28;20201;-74
2021/10/20 03:42:23;;;;;;;2.47;2.27;;;;;;;14.65;93.98;99882.22;5072987;28;20216;-74
2021/10/20 03:44:51;;;;;;;3.37;2.47;;;;;;;14.71;93.78;99869.81;5072683;28;20792;-74
2021/10/20 03:47:16;;;;;;;3.37;2.47;;;;;;;14.74;93.35;99877.34;5072776;28;20200;-75
2021/10/20 03:49:41;;;;;;;2.83;2.30;;;;;;;14.76;93.10;99875.06;5072652;28;20174;-74
2021/10/20 03:52:07;;;;;;;1.13;1.03;;;;;;;14.67;93.33;99868.91;5090712;28;20238;-74
2021/10/20 03:54:32;;;;;;;2.07;1.77;;;;;;;14.75;92.52;99859.69;5090015;28;20174;-74
2021/10/20 03:56:58;;;;;;;2.70;2.50;;;;;;;14.69;93.32;99861.09;5071990;28;20374;-74
2021/10/20 03:59:23;;;;;;;2.63;2.30;;;;;;;14.65;92.94;99849.22;5073290;28;20178;-74
2021/10/20 04:01:48;;;;;;;2.50;2.30;;;;;;;14.76;91.82;99842.06;5076061;28;20170;-74
2021/10/20 04:04:14;;;;;;;2.30;1.93;;;;;;;14.74;92.37;99843.53;5093926;28;20169;-74
2021/10/20 04:06:39;;;;;;;1.97;1.67;;;;;;;14.65;92.60;99823.69;5094130;28;20184;-74
2021/10/20 04:09:05;;;;;;;2.10;2.00;;;;;;;14.66;92.62;99820.56;5076009;28;20174;-74
2021/10/20 04:11:30;;;;;;;1.87;1.57;;;;;;;14.67;91.88;99819.41;5094323;28;20174;-74
2021/10/20 04:13:56;;;;;;;1.93;1.83;;;;;;;14.78;91.21;99817.75;5075401;28;20173;-74
2021/10/20 04:16:21;;;;;;;2.47;2.27;;;;;;;14.79;90.90;99821.28;5093904;28;20242;-74
2021/10/20 04:18:46;;;;;;;1.03;1.03;;;;;;;14.77;91.22;99821.66;5075698;28;20209;-74
2021/10/20 04:21:12;;;;;;;2.70;1.80;;;;;;;14.80;90.89;99817.38;5075805;28;20202;-73
2021/10/20 04:23:37;;;;;;;1.70;1.40;;;;;;;14.80;90.30;99809.94;5093951;28;20189;-74
2021/10/20 04:26:03;;;;;;;2.40;2.10;;;;;;;14.82;90.16;99820.56;5075731;28;20178;-73
2021/10/20 04:28:28;;;;;;;2.30;1.80;;;;;;;14.77;90.52;99801.59;5093980;28;20541;-74
2021/10/20 04:30:53;;;;;;;1.40;1.30;;;;;;;14.77;90.53;99794.16;5075750;28;20199;-74
2021/10/20 04:33:19;;;;;;;1.50;1.37;;;;;;;14.78;90.15;99794.94;5093891;28;20253;-74
2021/10/20 04:35:44;;;;;;;1.60;1.50;;;;;;;14.86;89.48;99785.69;5075476;28;20198;-74
2021/10/20 04:38:10;;;;;;;1.70;1.60;;;;;;;14.85;89.46;99784.91;5093825;28;20170;-74
2021/10/20 04:40:35;;;;;;;2.50;1.90;;;;;;;14.92;88.72;99789.00;5075745;28;20173;-74
2021/10/20 04:43:00;;;;;;;2.30;2.10;;;;;;;14.86;88.67;99789.25;5093772;28;20170;-74
2021/10/20 04:45:26;;;;;;;1.57;1.47;;;;;;;14.86;88.78;99775.50;5093307;28;20174;-74
2021/10/20 04:47:51;;;;;;;1.10;1.00;;;;;;;15.00;87.58;99791.53;5093549;28;20166;-74
2021/10/20 04:50:18;;;;;;;1.70;1.57;;;;;;;15.00;87.62;99783.28;5093497;28;20166;-74
2021/10/20 04:52:44;;;;;;;1.50;1.37;;;;;;;14.96;87.56;99779.66;5075261;28;20638;-74
2021/10/20 04:55:11;;;;;;;1.47;1.37;;;;;;;15.00;87.19;99774.25;5093291;28;20177;-74
2021/10/20 04:57:36;;;;;;;1.30;1.20;;;;;;;14.99;87.15;99765.19;5075113;28;20212;-75
2021/10/20 05:00:04;;;;;;;2.33;2.00;;;;;;;15.00;87.14;99766.78;5093553;28;20178;-74
2021/10/20 05:02:35;;;;;;;2.13;1.97;;;;;;;14.98;86.96;99766.34;5075149;28;20189;-74
2021/10/20 05:05:05;;;;;;;1.37;1.27;;;;;;;14.99;87.01;99762.44;5093338;28;20664;-74
2021/10/20 05:07:30;;;;;;;2.63;1.63;;;;;;;15.02;86.69;99752.66;5093226;28;20260;-74
2021/10/20 05:09:56;;;;;;;3.00;2.37;;;;;;;15.08;85.80;99767.75;5092994;28;20303;-75
2021/10/20 05:12:22;;;;;;;2.50;2.30;;;;;;;15.06;85.79;99753.56;5092446;28;20169;-74
2021/10/20 05:14:47;;;;;;;2.50;2.30;;;;;;;15.06;85.74;99757.13;5092759;28;20178;-74
2021/10/20 05:17:12;;;;;;;2.20;1.90;;;;;;;15.03;86.18;99751.50;5092778;28;20209;-74
2021/10/20 05:19:38;;;;;;;2.47;2.27;;;;;;;14.95;86.54;99750.56;5093087;28;20257;-74
2021/10/20 05:22:06;;;;;;;2.07;1.83;;;;;;;14.97;86.00;99752.97;5093147;28;20200;-73
2021/10/20 05:24:31;;;;;;;3.10;2.80;;;;;;;15.02;86.02;99753.47;5092638;28;20185;-74
2021/10/20 05:26:57;;;;;;;3.10;2.07;;;;;;;15.01;85.96;99751.88;5074666;28;20178;-74
2021/10/20 05:29:22;;;;;;;2.80;2.60;;;;;;;14.98;86.08;99754.56;5074622;28;20176;-74
2021/10/20 05:31:48;;;;;;;1.67;1.57;;;;;;;15.01;85.60;99748.31;5093014;28;20256;-74
2021/10/20 05:34:14;;;;;;;2.27;2.07;;;;;;;15.05;85.23;99739.03;5074358;28;20188;-74
2021/10/20 05:36:39;;;;;;;2.53;2.33;;;;;;;15.02;85.59;99741.66;5074487;28;20247;-74
2021/10/20 05:39:05;;;;;;;2.37;2.17;;;;;;;15.04;85.30;99740.16;5074421;28;20214;-74
2021/10/20 05:41:31;;;;;;;1.73;1.23;;;;;;;14.99;85.89;99731.38;5092633;28;20202;-74
2021/10/20 05:43:56;;;;;;;2.93;2.40;;;;;;;14.96;86.20;99727.41;5092347;28;20700;-74
2021/10/20 05:46:22;;;;;;;2.40;2.20;;;;;;;14.91;86.51;99727.69;5092591;28;20178;-74
2021/10/20 05:48:47;;;;;;;2.83;2.60;;;;;;;15.02;85.57;99719.66;5092454;28;20260;-74
2021/10/20 05:51:12;;;;;;;2.23;2.03;;;;;;;15.05;85.63;99725.25;5092505;28;20203;-74
2021/10/20 05:53:38;;;;;;;1.77;1.67;;;;;;;15.06;85.55;99729.59;5073888;28;20213;-74
2021/10/20 05:56:05;;;;;;;2.57;2.37;;;;;;;15.07;85.33;99730.41;5092227;28;20232;-74
2021/10/20 05:58:31;;;;;;;2.80;2.57;;;;;;;15.10;85.19;99732.44;5074361;28;20215;-74
2021/10/20 06:00:56;;;;;;;2.60;2.40;;;;;;;15.02;86.10;99727.91;5092258;28;20534;-75
2021/10/20 06:03:22;;;;;;;3.70;2.47;;;;;;;14.97;85.84;99715.25;5073959;28;20178;-75
2021/10/20 06:05:47;;;;;;;2.13;1.77;;;;;;;14.99;86.05;99717.63;5091919;28;20213;-75
2021/10/20 06:08:12;;;;;;;2.60;2.23;;;;;;;14.94;86.40;99704.97;5074099;28;20197;-74
2021/10/20 06:10:38;;;;;;;2.80;2.60;;;;;;;14.93;86.63;99727.31;5073818;28;20525;-74
2021/10/20 06:13:03;;;;;;;1.80;1.37;;;;;;;14.91;86.69;99715.88;5073561;28;20239;-74
2021/10/20 06:15:29;;;;;;;2.50;2.30;;;;;;;14.92;86.41;99723.00;5091763;28;20629;-73
2021/10/20 06:17:54;;;;;;;2.10;1.90;;;;;;;14.92;86.33;99726.53;5073974;28;20612;-73
2021/10/20 06:20:19;;;;;;;2.20;1.97;;;;;;;14.91;86.69;99722.19;5091938;28;20166;-73
2021/10/20 06:22:45;;;;;;;3.67;2.30;;;;;;;14.91;86.64;99726.91;5072885;28;20764;-73
2021/10/20 06:25:11;;;;;;;2.00;1.90;;;;;;;14.89;86.49;99711.50;5073541;28;20273;-73
2021/10/20 06:27:38;;;;;;;2.80;2.60;;;;;;;14.86;87.06;99714.19;5073474;28;20268;-73
2021/10/20 06:30:05;;;;;;;3.17;2.97;;;;;;;14.89;86.80;99707.97;5091778;28;20173;-73
2021/10/20 06:32:30;;;;;;;1.70;1.60;;;;;;;14.86;87.00;99714.19;5091642;28;20178;-73
2021/10/20 06:34:55;;;;;;;2.40;2.30;;;;;;;14.84;87.07;99706.31;5073132;28;20285;-73
2021/10/20 06:37:21;;;;;;;2.67;2.47;;;;;;;14.81;87.08;99712.53;5073273;28;20213;-73
2021/10/20 06:39:46;;;;;;;3.03;2.83;;;;;;;14.80;87.57;99707.38;5091603;28;20178;-73
2021/10/20 06:42:12;;;;;;;1.47;1.37;;;;;;;14.76;88.21;99714.75;5091544;28;20174;-73
2021/10/20 06:44:37;;;;;;;2.60;2.40;;;;;;;14.67;88.73;99717.69;5091117;28;20204;-74
2021/10/20 06:47:02;;;;;;;2.47;2.27;;;;;;;14.66;88.38;99705.09;5091738;28;20174;-73
2021/10/20 06:49:28;;;;;;;3.20;2.30;;;;;;;14.62;89.00;99761.97;5091435;28;20182;-73
2021/10/20 06:51:53;;;;;;;2.10;2.00;;;;;;;14.57;89.62;99710.78;5091274;28;20231;-73
2021/10/20 06:54:19;;;;;;;2.93;2.73;;;;;;;14.55;89.80;99710.34;5091160;28;20176;-73
2021/10/20 06:56:49;;;;;;;3.20;2.90;;;;;;;14.57;89.46;99701.72;5072970;28;20205;-73
2021/10/20 06:59:15;;;;;;;2.70;2.50;;;;;;;14.55;89.86;99715.03;5073244;28;20178;-73
2021/10/20 07:01:41;;;;;;;2.80;2.60;;;;;;;14.54;89.97;99711.50;5091348;28;20176;-73
2021/10/20 07:04:08;;;;;;;3.10;2.60;;;;;;;14.53;89.83;99712.66;5091056;28;20261;-73
2021/10/20 07:06:34;;;;;;;2.00;1.80;;;;;;;14.54;89.90;99711.50;5091402;28;20220;-73
2021/10/20 07:08:59;;;;;;;2.33;1.97;;;;;;;14.56;89.88;99709.19;5072855;28;20212;-73
2021/10/20 07:11:25;;;;;;;2.93;2.73;;;;;;;14.59;89.34;99688.41;5091675;28;20594;-74
2021/10/20 07:13:50;;;;;;;1.17;1.13;;;;;;;14.63;88.82;99683.81;5090620;28;20177;-73
2021/10/20 07:16:16;;;;;;;2.50;2.30;;;;;;;14.65;89.20;99694.47;5087895;28;20209;-73
2021/10/20 07:18:41;;;;;;;2.43;2.23;;;;;;;14.70;89.36;99683.97;5071314;28;20178;-73
2021/10/20 07:21:07;;;;;;;2.73;2.53;;;;;;;14.71;88.66;99679.28;5091288;28;20621;-73
2021/10/20 07:23:32;;;;;;;2.97;2.67;;;;;;;14.76;88.63;99673.50;5091199;28;20675;-73
2021/10/20 07:25:57;;;;;;;3.00;2.53;;;;;;;14.73;88.66;99677.75;5072891;28;20272;-73
2021/10/20 07:28:23;;;;;;;1.87;1.57;;;;;;;14.79;88.05;99678.28;5091182;28;20174;-73
2021/10/20 07:30:48;;;;;;;1.97;1.87;;;;;;;14.80;87.05;99672.44;5072901;28;20637;-73
2021/10/20 07:33:14;;;;;;;2.77;2.57;;;;;;;14.84;87.31;99667.81;5072915;28;20166;-73
2021/10/20 07:35:39;;;;;;;2.60;2.43;;;;;;;14.87;87.22;99672.56;5072550;28;20231;-75
2021/10/20 07:38:05;;;;;;;1.87;1.77;;;;;;;14.88;87.52;99670.63;5091024;28;20212;-75
2021/10/20 07:40:30;;;;;;;2.80;2.60;;;;;;;14.89;87.52;99664.75;5072793;28;20548;-73
2021/10/20 07:42:55;;;;;;;2.73;2.53;;;;;;;14.91;87.37;99669.13;5072896;28;20201;-73
2021/10/20 07:45:21;;;;;;;3.13;2.83;;;;;;;14.92;87.97;99662.47;5072702;28;20174;-73
2021/10/20 07:47:49;;;;;;;2.87;2.50;;;;;;;14.93;86.77;99661.31;5072738;28;20177;-73
2021/10/20 07:50:17;;;;;;;2.20;2.00;;;;;;;14.93;86.78;99667.63;5090885;28;20201;-73
2021/10/20 07:52:48;;;;;;;3.40;3.10;;;;;;;14.90;86.87;99651.84;5090876;28;20216;-73
2021/10/20 07:55:13;;;;;;;1.70;1.60;;;;;;;14.92;86.76;99644.00;5090799;28;20507;-73
2021/10/20 07:57:39;;;;;;;2.50;2.17;;;;;;;14.93;86.05;99651.09;5090681;28;20212;-73
2021/10/20 08:00:05;;;;;;;2.40;1.83;;;;;;;14.93;86.34;99651.09;5072696;28;20174;-74
2021/10/20 08:02:31;;;;;;;3.07;2.70;;;;;;;14.94;86.45;99632.66;5090828;28;20170;-74
2021/10/20 08:04:56;;;;;;;4.27;2.50;;;;;;;14.95;86.32;99626.00;5090592;28;20200;-73
2021/10/20 08:07:22;;;;;;;2.43;2.23;;;;;;;14.95;86.12;99620.50;5072457;28;20326;-74
2021/10/20 08:09:48;;;;;;;2.10;2.00;;;;;;;14.93;86.42;99609.84;5090797;28;20252;-74
2021/10/20 08:12:14;;;;;;;1.50;1.40;;;;;;;14.96;86.01;99627.59;5072381;28;20178;-74
2021/10/20 08:14:42;;;;;;;3.37;2.37;;;;;;;14.95;86.18;99613.03;5090651;28;20208;-75
2021/10/20 08:17:08;;;;;;;2.00;1.90;;;;;;;14.95;85.09;99603.97;5072376;28;20207;-74
2021/10/20 08:19:34;;;;;;;2.90;2.63;;;;;;;14.96;85.56;99608.31;5072558;28;20277;-73
2021/10/20 08:21:59;;;;;;;2.40;1.50;;;;;;;15.00;85.25;99614.69;5090688;28;20256;-73
2021/10/20 08:24:25;;;;;;;3.43;2.73;;;;;;;14.98;86.07;99600.50;5090381;28;20185;-73
2021/10/20 08:26:51;;;;;;;3.80;2.80;;;;;;;14.97;86.28;99613.47;5090105;28;20169;-74
2021/10/20 08:29:16;;;;;;;8.07;2.67;;;;;;;14.96;86.01;99598.13;5076145;28;20458;-74
2021/10/20 08:31:42;;;;;;;2.73;2.43;;;;;;;15.00;86.31;99606.44;5089363;28;20516;-74
2021/10/20 08:34:07;;;;;;;2.97;2.40;;;;;;;15.01;85.62;99600.56;5089417;28;20204;-74
2021/10/20 08:36:34;;;;;;;2.97;2.67;;;;;;;14.99;86.48;99596.59;5090083;28;20437;-74
2021/10/20 08:38:59;;;;;;;3.07;2.83;;;;;;;15.07;86.64;99592.84;5089960;28;20170;-74
2021/10/20 08:41:25;;;;;;;2.60;2.40;;;;;;;15.12;84.91;99576.84;5069982;28;20185;-74
2021/10/20 08:43:50;;;;;;;2.03;1.83;;;;;;;15.15;84.33;99564.28;5085307;28;20229;-74
2021/10/20 08:46:21;;;;;;;2.87;2.67;;;;;;;15.15;85.05;99561.53;5092268;28;20537;-73
2021/10/20 08:48:46;;;;;;;4.30;2.50;;;;;;;15.17;85.17;99553.72;5089306;28;20165;-74
2021/10/20 08:51:13;;;;;;;3.53;3.10;;;;;;;15.21;83.84;99526.28;5075987;28;20703;-74
2021/10/20 08:53:38;;;;;;;2.50;2.30;;;;;;;15.17;84.29;99523.44;5073146;28;20217;-73
2021/10/20 08:56:04;;;;;;;8.33;2.83;;;;;;;15.15;84.50;99512.03;5068185;28;20248;-74
2021/10/20 08:58:30;;;;;;;4.67;1.80;;;;;;;15.19;84.59;99512.91;5092650;28;20269;-74
2021/10/20 09:00:56;;;;;;;2.43;2.23;;;;;;;15.17;84.42;99502.22;5074995;28;20637;-74
2021/10/20 09:03:21;;;;;;;5.13;2.53;;;;;;;15.24;84.55;99509.03;5092697;28;20219;-74
2021/10/20 09:05:46;;;;;;;3.07;2.87;;;;;;;15.25;85.19;99491.38;5073069;28;20190;-74
2021/10/20 09:08:13;;;;;;;1.40;1.30;;;;;;;15.37;84.74;99494.75;5091546;28;20184;-76
2021/10/20 09:10:39;;;;;;;2.97;1.97;;;;;;;15.46;83.70;99500.00;5073512;28;20205;-75
2021/10/20 09:13:04;;;;;;;2.20;2.00;;;;;;;15.52;83.05;99493.03;5073023;28;20553;-75
2021/10/20 09:15:35;;;;;;;3.07;2.80;;;;;;;15.62;84.02;99502.63;5091650;28;20181;-75
2021/10/20 09:18:06;;;;;;;0.63;0.63;;;;;;;15.62;83.18;99491.63;5091851;28;20182;-75
2021/10/20 09:20:57;;;;;;;2.27;2.07;;;;;;;15.66;82.89;99492.50;5074900;28;20246;-76
2021/10/20 09:23:22;;;;;;;2.40;2.20;;;;;;;15.67;83.96;99500.38;5074846;28;20542;-75
2021/10/20 09:25:57;;;;;;;3.20;2.03;;;;;;;15.69;83.44;99478.78;5074566;28;20622;-75
2021/10/20 09:28:22;;;;;;;1.67;1.57;;;;;;;15.69;83.24;99459.50;5074717;28;20177;-75
2021/10/20 09:30:49;;;;;;;3.00;2.70;;;;;;;15.71;82.76;99446.16;5088920;28;20590;-75
2021/10/20 09:33:15;;;;;;;2.20;2.00;;;;;;;15.80;83.71;99456.94;5092775;28;20879;-74
2021/10/20 09:35:41;;;;;;;2.70;2.50;;;;;;;15.92;83.60;99442.16;5071621;28;20181;-76
2021/10/20 09:38:08;;;;;;;3.70;2.23;;;;;;;16.06;82.64;99434.88;5083033;28;20181;-76
2021/10/20 09:40:41;;;;;;;1.43;1.33;;;;;;;16.24;82.86;99453.59;5092029;28;20181;-75
2021/10/20 09:43:09;;;;;;;4.17;2.60;;;;;;;16.39;82.85;99435.28;5092300;28;20625;-76
2021/10/20 09:45:38;;;;;;;2.37;1.97;;;;;;;16.44;81.57;99427.47;5092365;28;20174;-75
2021/10/20 09:48:15;;;;;;;1.07;0.97;;;;;;;16.46;81.41;99425.13;5092531;28;20178;-76
2021/10/20 09:51:07;;;;;;;1.93;1.77;;;;;;;16.41;80.85;99411.69;5091249;28;20519;-75
2021/10/20 09:53:35;;;;;;;2.07;1.97;;;;;;;16.43;82.27;99447.94;5092576;28;20260;-75
2021/10/20 09:56:31;;;;;;;2.33;2.13;;;;;;;16.30;82.17;99449.34;5092204;28;20197;-75
2021/10/20 09:58:58;;;;;;;2.43;2.23;;;;;;;16.20;83.23;99428.75;5089920;28;20200;-76
2021/10/20 10:01:25;;;;;;;1.97;1.73;;;;;;;16.13;83.85;99436.91;5088226;28;20189;-75
2021/10/20 10:03:53;;;;;;;2.90;2.60;;;;;;;16.02;84.08;99434.00;5075331;28;20174;-76
2021/10/20 10:06:19;;;;;;;2.53;2.20;;;;;;;16.04;85.14;99452.94;5077234;28;20197;-75
2021/10/20 10:08:46;;;;;;;2.00;1.90;;;;;;;16.15;84.64;99431.03;5092455;28;20184;-76
2021/10/20 10:11:12;;;;;;;1.43;1.33;;;;;;;16.35;84.52;99433.28;5090899;28;20265;-76
2021/10/20 10:13:49;;;;;;;4.50;2.00;;;;;;;16.46;82.93;99416.84;5092186;28;20182;-76
2021/10/20 10:16:19;;;;;;;0.90;0.90;;;;;;;16.54;83.52;99415.78;5092155;28;20193;-76
2021/10/20 10:18:44;;;;;;;2.53;2.37;;;;;;;16.72;83.42;99423.47;5092005;28;20174;-76
2021/10/20 10:21:33;;;;;;;3.13;2.10;;;;;;;16.87;82.39;99430.75;5092104;28;20231;-76
2021/10/20 10:24:02;;;;;;;2.03;1.83;;;;;;;17.01;83.05;99436.41;5092177;28;20197;-76
2021/10/20 10:26:28;;;;;;;1.23;0.73;;;;;;;17.13;81.68;99425.09;5092066;28;20209;-76
2021/10/20 10:29:11;;;;;;;4.53;1.53;;;;;;;17.33;82.63;99428.41;5090549;28;20277;-76
2021/10/20 10:31:43;;;;;;;2.10;1.67;;;;;;;17.41;80.85;99402.47;5090523;28;20265;-77
2021/10/20 10:34:19;;;;;;;8.53;2.00;;;;;;;17.53;81.11;99398.59;5091578;28;20686;-77
2021/10/20 10:36:57;;;;;;;3.80;1.60;;;;;;;17.64;81.52;99404.19;5091551;28;20497;-76
2021/10/20 10:39:23;;;;;;;2.30;2.20;;;;;;;17.69;80.14;99392.81;5090395;28;20234;-76
2021/10/20 10:41:49;;;;;;;1.97;1.87;;;;;;;17.86;79.38;99391.34;5090278;28;20257;-76
2021/10/20 10:44:25;;;;;;;1.17;1.07;;;;;;;17.96;78.76;99404.44;5090869;28;20210;-77
2021/10/20 10:47:26;;;;;;;1.83;1.73;;;;;;;17.85;79.43;99382.25;5091616;28;20185;-77
2021/10/20 10:49:56;;;;;;;7.30;1.87;;;;;;;17.81;80.13;99382.25;5075470;28;20213;-77
2021/10/20 10:52:35;;;;;;;4.27;2.70;;;;;;;17.95;80.19;99383.50;5085036;28;20637;-77
2021/10/20 10:55:14;;;;;;;1.07;1.07;;;;;;;18.03;79.62;99374.06;5091492;28;20189;-77
2021/10/20 10:57:51;;;;;;;2.60;1.57;;;;;;;18.03;79.77;99376.81;5090990;28;20284;-77
2021/10/20 11:00:20;;;;;;;2.67;2.47;;;;;;;18.16;80.29;99382.81;5080400;28;20272;-77
2021/10/20 11:02:51;;;;;;;3.40;3.10;;;;;;;18.22;80.95;99368.22;5091000;28;20166;-77
2021/10/20 11:05:33;;;;;;;3.03;2.43;;;;;;;18.20;79.29;99362.28;5090964;28;20178;-78
2021/10/20 11:08:01;;;;;;;2.43;2.23;;;;;;;18.01;79.76;99351.53;5089454;28;20196;-78
2021/10/20 11:10:27;;;;;;;2.50;1.60;;;;;;;17.86;80.17;99339.63;5091093;28;20630;-77
2021/10/20 11:12:56;;;;;;;2.10;2.00;;;;;;;17.79;81.47;99337.63;5091214;28;20649;-77
2021/10/20 11:15:23;;;;;;;3.20;2.90;;;;;;;17.99;81.51;99326.28;5090681;28;20257;-78
2021/10/20 11:17:49;;;;;;;6.17;2.70;;;;;;;18.28;81.15;99305.84;5090869;28;20216;-77
2021/10/20 11:20:20;;;;;;;1.40;1.30;;;;;;;18.32;78.80;99306.63;5090855;28;20166;-77
2021/10/20 11:22:47;;;;;;;1.80;1.30;;;;;;;18.10;78.66;99299.47;5090938;28;20189;-77
2021/10/20 11:25:14;;;;;;;3.23;2.57;;;;;;;18.09;81.19;99314.47;5090525;28;20556;-75
2021/10/20 11:27:45;;;;;;;3.47;3.13;;;;;;;17.89;79.62;99313.19;5090861;28;20201;-76